Sunday, December 16, 2018, 10:28 AM GMT
Back to Local

CWTN, Cap Tourmente

Location: , , Canada Lat: 47.067
Local Time: 10:28 AM GMT (10:28 GMT) Lon: -70.8
Time Zone: GMT Elev: 19 ft

Show me the last for .
Show Coded

Time T Td Feel RH Dir Speed Gust Alt SLP Vis Weather Sky Remarks
2018-12-16 10:00 23 19 18 84 330° 3 - - 30.24 0 None
2018-12-16 09:00 26 21 21 81 320° 3 - - 30.25 0 None
2018-12-16 08:00 28 22 24 76 350° 3 - - 30.24 0 None
2018-12-16 07:00 26 23 20 87 350° 5 - - 30.26 0 None
2018-12-16 06:00 30 24 - 78 360° 1 - - 30.25 0 None
2018-12-16 05:00 27 25 - 90 330° 2 - - 30.27 0 None
2018-12-16 04:00 28 25 - 89 340° 1 - - 30.27 0 None
2018-12-16 03:00 29 27 - 91 290° 2 - - 30.26 0 None
2018-12-16 02:00 31 29 28 91 310° 3 - - 30.25 0 None
2018-12-16 01:00 32 30 - 94 270° 2 - - 30.26 0 None
2018-12-16 00:00 33 31 - 90 290° 2 - - 30.25 0 None
2018-12-15 23:00 35 32 32 87 280° 3 - - 30.24 0 None
2018-12-15 22:00 33 33 - 97 280° 2 - - 30.21 0 None
2018-12-15 21:00 34 33 - 95 290° 2 - - 30.19 0 None
2018-12-15 20:00 37 32 32 81 270° 7 - - 30.17 0 None
2018-12-15 19:00 37 32 32 82 280° 6 - - 30.14 0 None
2018-12-15 18:00 36 32 32 82 270° 6 - - 30.12 0 None
2018-12-15 17:00 36 31 34 81 180° 3 - - 30.12 0 None
2018-12-15 16:00 36 31 31 81 260° 6 - - 30.11 0 None
2018-12-15 15:00 36 33 30 89 280° 7 - - 30.09 0 None
2018-12-15 14:00 35 33 30 90 290° 7 - - 30.07 0 None
2018-12-15 13:00 34 31 29 87 300° 6 - - 30.07 0 None
2018-12-15 12:00 33 31 28 89 290° 6 - - 30.03 0 None
2018-12-15 11:00 34 31 28 89 260° 7 - - 30.01 0 None

Support USWX by starting your Amazon purchase here.